createdAt,value
2023-01-17T00:01:40.184Z,10.20
2023-01-17T00:08:04.307Z,11.10
2023-01-17T00:14:15.104Z,12.10
2023-01-17T00:20:48.035Z,12.90
2023-01-17T00:27:14.232Z,12.70
2023-01-17T00:33:37.372Z,11.40
2023-01-17T00:39:40.574Z,13.40
2023-01-17T00:46:05.545Z,11.60
2023-01-17T00:52:35.971Z,13.20
2023-01-17T00:59:09.411Z,14.80
2023-01-17T01:05:42.639Z,12.30
2023-01-17T01:12:07.115Z,11.30
2023-01-17T01:18:36.027Z,12.70
2023-01-17T01:25:06.721Z,13.50
2023-01-17T01:31:39.165Z,11.70
2023-01-17T01:37:44.706Z,10.50
2023-01-17T01:43:54.026Z,9.70
2023-01-17T01:49:58.053Z,11.10
2023-01-17T01:56:01.591Z,8.40
2023-01-17T02:02:07.265Z,11.30
2023-01-17T02:08:34.563Z,8.70
2023-01-17T02:14:37.437Z,6.30
2023-01-17T02:20:52.297Z,6.20
2023-01-17T02:27:10.332Z,7.70
2023-01-17T02:33:43.606Z,8.20
2023-01-17T02:39:57.722Z,7.60
2023-01-17T02:46:04.044Z,6.30
2023-01-17T02:52:18.755Z,6.70
2023-01-17T02:58:49.227Z,7.10
2023-01-17T03:05:07.924Z,6.30
2023-01-17T03:11:31.931Z,6.50
2023-01-17T03:17:35.001Z,8.10
2023-01-17T03:23:45.953Z,5.70
2023-01-17T03:29:51.276Z,6.60
2023-01-17T03:35:57.971Z,7.30
2023-01-17T03:42:06.241Z,4.30
2023-01-17T03:48:09.161Z,5.60
2023-01-17T03:54:14.758Z,5.20
2023-01-17T04:00:20.591Z,6.10
2023-01-17T04:06:23.619Z,4.60
2023-01-17T04:12:41.562Z,4.40
2023-01-17T04:18:48.193Z,4.70
2023-01-17T04:25:07.155Z,4.30
2023-01-17T04:31:31.584Z,6.00
2023-01-17T04:37:37.790Z,6.60
2023-01-17T04:43:43.141Z,5.40
2023-01-17T04:50:26.844Z,3.80
2023-01-17T04:56:49.061Z,5.00
2023-01-17T05:03:02.750Z,4.50
2023-01-17T05:09:18.966Z,3.10
2023-01-17T05:15:30.379Z,3.40
2023-01-17T05:21:47.962Z,4.00
2023-01-17T05:27:50.996Z,4.00
2023-01-17T05:34:14.480Z,4.60
2023-01-17T05:40:29.300Z,3.60
2023-01-17T05:46:42.755Z,4.70
2023-01-17T05:52:53.172Z,3.90
2023-01-17T05:58:56.238Z,4.50
2023-01-17T06:05:03.619Z,4.30
2023-01-17T06:11:06.817Z,4.10
2023-01-17T06:17:38.599Z,4.60
2023-01-17T06:23:43.854Z,6.90
2023-01-17T06:29:46.702Z,4.00
2023-01-17T06:42:21.005Z,5.70
2023-01-17T06:48:23.831Z,5.90
2023-01-17T06:54:27.074Z,5.70
2023-01-17T07:00:31.570Z,5.80
2023-01-17T07:06:36.522Z,6.10
2023-01-17T07:12:43.976Z,5.90
2023-01-17T07:18:51.294Z,6.20
2023-01-17T07:24:58.618Z,6.10
2023-01-17T07:31:07.187Z,6.10
2023-01-17T07:37:10.161Z,4.90
2023-01-17T07:43:16.639Z,6.70
2023-01-17T07:49:19.453Z,5.40
2023-01-17T07:55:22.831Z,5.20
2023-01-17T08:01:26.033Z,7.40
2023-01-17T08:07:29.819Z,7.70
2023-01-17T08:13:33.021Z,7.60
2023-01-17T08:19:36.187Z,7.60
2023-01-17T08:25:39.449Z,10.00
2023-01-17T08:31:44.763Z,8.60
2023-01-17T08:37:48.693Z,7.60
2023-01-17T08:43:52.206Z,8.20
2023-01-17T08:49:54.951Z,7.90
2023-01-17T08:56:01.857Z,8.00
2023-01-17T09:02:14.839Z,7.80
2023-01-17T09:08:18.363Z,10.60
2023-01-17T09:14:21.182Z,10.40
2023-01-17T09:20:25.193Z,8.60
2023-01-17T09:26:29.657Z,17.40
2023-01-17T09:32:32.382Z,15.50
2023-01-17T09:38:36.855Z,18.00
2023-01-17T09:44:43.231Z,18.60
2023-01-17T09:51:10.605Z,19.20
2023-01-17T09:57:38.213Z,19.80
2023-01-17T10:03:57.961Z,20.90
2023-01-17T10:10:39.373Z,20.10
2023-01-17T10:16:56.903Z,18.20
2023-01-17T10:23:28.024Z,14.50
2023-01-17T10:29:33.387Z,13.60
2023-01-17T10:35:38.122Z,14.10
2023-01-17T10:41:44.171Z,13.80
2023-01-17T10:47:51.810Z,15.10
2023-01-17T10:54:07.775Z,13.70
2023-01-17T11:00:29.026Z,18.50
2023-01-17T11:06:33.163Z,15.80
2023-01-17T11:12:41.206Z,12.60
2023-01-17T11:18:44.121Z,9.50
2023-01-17T11:24:53.577Z,7.20
2023-01-17T11:30:58.694Z,6.40
2023-01-17T11:37:18.899Z,6.20
2023-01-17T11:43:25.743Z,8.40
2023-01-17T11:49:29.336Z,7.60
2023-01-17T11:55:32.208Z,9.30
2023-01-17T12:01:49.185Z,10.70
2023-01-17T12:08:10.369Z,9.80
2023-01-17T12:14:30.392Z,6.20
2023-01-17T12:20:33.332Z,6.40
2023-01-17T12:26:41.949Z,5.60
2023-01-17T12:33:05.998Z,7.10
2023-01-17T12:39:12.409Z,6.30
2023-01-17T12:51:37.708Z,7.70
2023-01-17T12:57:47.896Z,5.50
2023-01-17T13:04:23.204Z,5.00
2023-01-17T13:10:41.011Z,4.70
2023-01-17T13:17:04.995Z,5.50
2023-01-17T13:23:29.077Z,5.00
2023-01-17T13:29:57.060Z,4.00
2023-01-17T13:35:59.780Z,6.80
2023-01-17T13:42:11.508Z,3.10
2023-01-17T13:48:18.215Z,2.80
2023-01-17T13:54:34.177Z,2.60
2023-01-17T14:00:43.180Z,3.20
2023-01-17T14:06:52.953Z,2.90
2023-01-17T14:12:56.375Z,3.50
2023-01-17T14:18:59.144Z,4.30
2023-01-17T14:25:04.302Z,2.80
2023-01-17T14:31:10.209Z,2.90
2023-01-17T14:37:36.486Z,3.30
2023-01-17T14:43:42.362Z,2.90
2023-01-17T14:49:49.115Z,4.40
2023-01-17T14:55:58.090Z,4.40
2023-01-17T15:02:08.028Z,4.10
2023-01-17T15:08:19.402Z,4.90
2023-01-17T15:14:38.740Z,3.80
2023-01-17T15:20:47.263Z,2.60
2023-01-17T15:26:53.441Z,5.50
2023-01-17T15:32:58.707Z,4.00
2023-01-17T15:39:23.810Z,4.50
2023-01-17T15:45:31.926Z,3.70
2023-01-17T15:51:38.988Z,4.10
2023-01-17T15:57:47.510Z,3.60
2023-01-17T16:03:54.624Z,3.60
2023-01-17T16:10:35.678Z,7.50
2023-01-17T16:16:40.982Z,7.10
2023-01-17T16:22:43.978Z,7.50
2023-01-17T16:28:47.302Z,8.30
2023-01-17T16:34:50.297Z,10.40
2023-01-17T16:40:53.997Z,8.70
2023-01-17T16:47:01.150Z,8.20
2023-01-17T16:53:03.993Z,9.70
2023-01-17T16:59:06.777Z,7.70
2023-01-17T17:05:10.528Z,6.90
2023-01-17T17:11:19.305Z,9.60
2023-01-17T17:17:22.008Z,10.00
2023-01-17T17:23:25.344Z,8.60
2023-01-17T17:29:28.092Z,9.90
2023-01-17T17:35:33.813Z,8.30
2023-01-17T17:41:39.269Z,8.20
2023-01-17T17:47:44.495Z,10.80
2023-01-17T17:53:47.806Z,11.30
2023-01-17T17:59:57.011Z,12.70
2023-01-17T18:06:04.812Z,12.10
2023-01-17T18:12:08.011Z,9.40
2023-01-17T18:18:10.887Z,12.60
2023-01-17T18:24:23.254Z,15.30
2023-01-17T18:30:26.675Z,17.10
2023-01-17T18:36:32.085Z,15.30
2023-01-17T18:42:35.058Z,12.10
2023-01-17T18:48:38.866Z,9.90
2023-01-17T18:54:41.921Z,14.10
2023-01-17T19:00:44.978Z,10.30
2023-01-17T19:06:48.971Z,16.50
2023-01-17T19:12:52.137Z,14.20
2023-01-17T19:18:56.688Z,18.80
2023-01-17T19:24:59.659Z,12.60
2023-01-17T19:31:11.549Z,19.20
2023-01-17T19:37:15.042Z,22.10
2023-01-17T19:43:28.967Z,24.20
2023-01-17T19:49:33.899Z,24.30
2023-01-17T19:55:39.921Z,24.90
2023-01-17T20:01:43.477Z,24.90
2023-01-17T20:07:46.631Z,28.40
2023-01-17T20:13:55.257Z,26.30
2023-01-17T20:20:02.121Z,25.70
2023-01-17T20:26:06.131Z,31.30
2023-01-17T20:32:10.431Z,27.20
2023-01-17T20:38:13.309Z,28.80
2023-01-17T20:44:20.270Z,25.00
2023-01-17T20:50:27.664Z,26.30
2023-01-17T20:56:35.235Z,27.60
2023-01-17T21:02:39.234Z,28.90
2023-01-17T21:08:44.740Z,27.10
2023-01-17T21:14:48.757Z,32.10
2023-01-17T21:20:51.984Z,30.50
2023-01-17T21:26:55.164Z,25.60
2023-01-17T21:32:58.534Z,28.80
2023-01-17T21:39:08.034Z,31.10
2023-01-17T21:45:16.642Z,29.80
2023-01-17T21:51:19.778Z,27.50
2023-01-17T21:57:50.588Z,23.30
2023-01-17T22:04:01.164Z,23.20
2023-01-17T22:10:04.240Z,23.30
2023-01-17T22:16:10.647Z,23.60
2023-01-17T22:22:13.839Z,21.30
2023-01-17T22:28:16.895Z,25.20
2023-01-17T22:34:19.965Z,22.70
2023-01-17T22:40:23.551Z,18.40
2023-01-17T22:46:29.023Z,20.00
2023-01-17T22:52:32.314Z,21.10
2023-01-17T22:58:35.879Z,17.70
2023-01-17T23:04:41.974Z,14.80
2023-01-17T23:17:31.663Z,14.20
2023-01-17T23:23:34.757Z,16.90
2023-01-17T23:29:37.951Z,17.70
2023-01-17T23:35:43.004Z,16.60
2023-01-17T23:42:07.165Z,15.20
2023-01-17T23:48:10.752Z,12.50
2023-01-17T23:54:13.982Z,13.10
